AKDT,Max TemperatureF,Mean TemperatureF,Min TemperatureF,Max Dew PointF,MeanDew PointF,Min DewpointF,Max Humidity, Mean Humidity, Min Humidity, Max Sea Level PressureIn, Mean Sea Level PressureIn, Min Sea Level PressureIn, Max VisibilityMiles, Mean VisibilityMiles, Min VisibilityMiles, Max Wind SpeedMPH, Mean Wind SpeedMPH, Max Gust SpeedMPH,PrecipitationIn, CloudCover, Events, WindDirDegrees
2013-7-1,80,70,57,52,46,41,77,46,24,29.64,29.53,29.43,13,10,5,32,7,38,0.11,6,Rain-Thunderstorm,303
2013-7-2,71,60,50,51,44,37,86,60,29,29.73,29.61,29.54,13,9,3,17,3,25,0.04,6,Rain,240
2013-7-3,68,57,46,47,42,37,87,56,33,29.92,29.87,29.76,10,10,10,13,4,,0.00,4,Rain,317
2013-7-4,55,52,48,44,42,39,77,68,59,30.02,29.93,29.89,10,10,10,9,2,,0.00,4,,58
2013-7-5,66,56,46,48,42,37,93,58,37,30.07,30.02,29.95,13,10,7,13,5,22,0.01,6,Rain,273
2013-7-6,75,60,46,45,41,37,81,53,27,29.97,29.89,29.74,13,6,2,10,4,,0.00,6,Rain,109
2013-7-7,75,62,50,48,42,37,76,46,25,29.73,29.59,29.52,13,7,1,20,5,28,0.00,5,,124
2013-7-8,64,56,48,54,49,45,94,77,52,29.73,29.64,29.56,10,6,1,10,3,13,0.01,6,Rain-Thunderstorm,120
2013-7-9,64,58,51,52,47,45,93,68,49,30.00,29.91,29.75,10,10,10,14,7,17,0.01,6,Rain,243
2013-7-10,59,56,53,52,49,45,94,83,63,30.07,30.02,29.98,10,7,2,13,9,,0.04,7,Rain,271
2013-7-11,68,60,51,52,49,45,100,77,43,30.09,30.07,30.04,13,10,4,10,1,,0.00,7,Rain,92
2013-7-12,80,66,51,45,39,28,74,42,15,30.06,30.02,29.95,10,10,10,10,6,17,0.00,1,,71
2013-7-13,82,67,52,47,38,34,71,32,17,30.02,30.00,29.97,10,10,10,8,3,,0.00,1,,130
2013-7-14,88,72,55,51,46,43,67,41,21,30.12,30.07,30.01,10,10,10,14,5,18,0.00,0,,208
2013-7-15,80,71,62,52,49,46,68,48,30,30.19,30.14,30.10,10,8,5,14,5,18,0.00,5,Rain,324
2013-7-16,68,65,62,54,51,47,72,60,49,30.18,30.14,30.11,13,10,7,12,8,16,0.00,7,Rain,253
2013-7-17,71,65,59,54,49,43,78,60,35,30.11,30.09,30.05,10,10,10,15,7,,0.00,7,,250
2013-7-18,71,64,57,57,51,45,94,67,38,30.15,30.10,30.04,10,8,3,10,4,,0.06,6,Rain,225
2013-7-19,62,60,57,57,55,50,100,85,72,30.12,30.09,30.07,10,6,1,18,8,25,0.21,8,Rain,245
2013-7-20,63,58,53,53,51,47,94,80,56,30.12,30.11,30.09,10,10,6,18,12,22,0.11,8,Rain,252
2013-7-21,68,61,54,51,48,45,83,64,43,30.18,30.14,30.11,10,10,10,12,7,,0.00,7,,253
2013-7-22,73,60,46,52,47,43,90,64,38,30.23,30.17,30.11,15,12,10,9,3,16,0.00,3,,204
2013-7-23,78,66,55,53,50,46,81,58,32,30.14,30.08,30.01,13,10,10,14,4,18,0.00,4,,254
2013-7-24,73,65,57,61,54,52,84,67,50,30.04,30.00,29.96,15,12,10,14,5,,0.05,6,Rain,250
2013-7-25,73,66,59,56,50,45,77,59,36,30.07,30.02,29.98,13,11,10,15,8,21,0.00,5,Rain,263
2013-7-26,73,62,50,53,47,43,83,64,35,30.19,30.14,30.08,10,10,10,14,4,20,0.00,4,,100
2013-7-27,80,66,53,55,52,50,89,59,36,30.26,30.23,30.20,10,10,10,14,4,21,0.00,1,,264
2013-7-28,88,72,55,54,51,47,81,50,24,30.21,30.14,30.04,10,10,10,13,4,21,0.00,0,Thunderstorm,304
2013-7-29,80,72,64,55,52,46,68,49,30,30.13,30.10,30.06,10,10,10,16,9,25,0.00,3,,260
2013-7-30,77,65,53,52,49,46,82,58,34,30.20,30.17,30.13,13,10,10,14,4,20,0.00,3,,238
2013-7-31,82,66,50,52,47,45,86,56,26,30.19,30.12,30.02,13,10,7,13,4,,0.00,2,,355